sensor_id;sensor_type;location;lat;lon;timestamp;P1;durP1;ratioP1;P2;durP2;ratioP2
17631;SDS011;8934;51.194;17.150;2023-11-22T00:01:34;31.17;;;15.05;;
17631;SDS011;8934;51.194;17.150;2023-11-22T00:04:22;37.08;;;16.02;;
17631;SDS011;8934;51.194;17.150;2023-11-22T00:07:12;27.08;;;13.55;;
17631;SDS011;8934;51.194;17.150;2023-11-22T00:10:00;32.50;;;13.88;;
17631;SDS011;8934;51.194;17.150;2023-11-22T00:12:50;34.83;;;13.68;;
17631;SDS011;8934;51.194;17.150;2023-11-22T00:15:37;32.47;;;13.40;;
17631;SDS011;8934;51.194;17.150;2023-11-22T00:18:25;30.48;;;14.57;;
17631;SDS011;8934;51.194;17.150;2023-11-22T00:21:13;37.40;;;13.30;;
17631;SDS011;8934;51.194;17.150;2023-11-22T00:24:02;32.28;;;13.13;;
17631;SDS011;8934;51.194;17.150;2023-11-22T00:26:50;27.65;;;12.13;;
17631;SDS011;8934;51.194;17.150;2023-11-22T00:29:38;27.27;;;12.35;;
17631;SDS011;8934;51.194;17.150;2023-11-22T00:32:25;30.23;;;12.45;;
17631;SDS011;8934;51.194;17.150;2023-11-22T00:35:13;33.17;;;13.90;;
17631;SDS011;8934;51.194;17.150;2023-11-22T00:38:01;25.88;;;12.52;;
17631;SDS011;8934;51.194;17.150;2023-11-22T00:40:50;29.15;;;13.00;;
17631;SDS011;8934;51.194;17.150;2023-11-22T00:43:38;30.30;;;12.93;;
17631;SDS011;8934;51.194;17.150;2023-11-22T00:46:26;26.98;;;12.68;;
17631;SDS011;8934;51.194;17.150;2023-11-22T00:49:13;21.50;;;11.73;;
17631;SDS011;8934;51.194;17.150;2023-11-22T00:52:01;28.13;;;12.35;;
17631;SDS011;8934;51.194;17.150;2023-11-22T00:54:49;30.13;;;11.82;;
17631;SDS011;8934;51.194;17.150;2023-11-22T00:57:39;29.65;;;11.38;;
17631;SDS011;8934;51.194;17.150;2023-11-22T01:00:27;20.52;;;10.32;;
17631;SDS011;8934;51.194;17.150;2023-11-22T01:03:15;25.85;;;11.45;;
17631;SDS011;8934;51.194;17.150;2023-11-22T01:06:02;24.13;;;11.77;;
17631;SDS011;8934;51.194;17.150;2023-11-22T01:08:52;22.92;;;9.70;;
17631;SDS011;8934;51.194;17.150;2023-11-22T01:11:39;26.15;;;10.13;;
17631;SDS011;8934;51.194;17.150;2023-11-22T01:14:28;27.45;;;13.27;;
17631;SDS011;8934;51.194;17.150;2023-11-22T01:17:16;25.15;;;10.68;;
17631;SDS011;8934;51.194;17.150;2023-11-22T01:20:04;24.85;;;11.77;;
17631;SDS011;8934;51.194;17.150;2023-11-22T01:22:53;20.73;;;10.30;;
17631;SDS011;8934;51.194;17.150;2023-11-22T01:25:41;30.77;;;13.45;;
17631;SDS011;8934;51.194;17.150;2023-11-22T01:28:28;21.13;;;9.07;;
17631;SDS011;8934;51.194;17.150;2023-11-22T01:31:21;25.70;;;10.25;;
17631;SDS011;8934;51.194;17.150;2023-11-22T01:34:09;20.05;;;10.23;;
17631;SDS011;8934;51.194;17.150;2023-11-22T01:36:56;32.03;;;10.50;;
17631;SDS011;8934;51.194;17.150;2023-11-22T01:39:44;23.38;;;10.75;;
17631;SDS011;8934;51.194;17.150;2023-11-22T01:42:32;21.08;;;10.35;;
17631;SDS011;8934;51.194;17.150;2023-11-22T01:45:20;16.48;;;9.98;;
17631;SDS011;8934;51.194;17.150;2023-11-22T01:48:09;23.25;;;11.05;;
17631;SDS011;8934;51.194;17.150;2023-11-22T01:50:58;19.70;;;10.02;;
17631;SDS011;8934;51.194;17.150;2023-11-22T01:53:47;26.83;;;11.88;;
17631;SDS011;8934;51.194;17.150;2023-11-22T01:56:36;21.70;;;10.10;;
17631;SDS011;8934;51.194;17.150;2023-11-22T01:59:25;20.10;;;9.73;;
17631;SDS011;8934;51.194;17.150;2023-11-22T02:02:14;17.10;;;8.55;;
17631;SDS011;8934;51.194;17.150;2023-11-22T02:05:03;20.20;;;10.82;;
17631;SDS011;8934;51.194;17.150;2023-11-22T02:07:51;21.35;;;8.75;;
17631;SDS011;8934;51.194;17.150;2023-11-22T02:10:39;24.20;;;10.07;;
17631;SDS011;8934;51.194;17.150;2023-11-22T02:13:27;24.77;;;11.45;;
17631;SDS011;8934;51.194;17.150;2023-11-22T02:16:15;18.05;;;9.77;;
17631;SDS011;8934;51.194;17.150;2023-11-22T02:19:05;26.48;;;11.73;;
17631;SDS011;8934;51.194;17.150;2023-11-22T02:21:55;20.58;;;9.38;;
17631;SDS011;8934;51.194;17.150;2023-11-22T02:24:44;22.98;;;11.98;;
17631;SDS011;8934;51.194;17.150;2023-11-22T02:27:32;23.27;;;10.00;;
17631;SDS011;8934;51.194;17.150;2023-11-22T02:30:19;16.45;;;7.80;;
17631;SDS011;8934;51.194;17.150;2023-11-22T02:33:07;19.98;;;9.05;;
17631;SDS011;8934;51.194;17.150;2023-11-22T02:35:55;22.00;;;9.07;;
17631;SDS011;8934;51.194;17.150;2023-11-22T02:38:44;24.55;;;11.23;;
17631;SDS011;8934;51.194;17.150;2023-11-22T02:41:34;18.58;;;10.48;;
17631;SDS011;8934;51.194;17.150;2023-11-22T02:44:22;15.10;;;8.63;;
17631;SDS011;8934;51.194;17.150;2023-11-22T02:47:10;20.63;;;11.43;;
17631;SDS011;8934;51.194;17.150;2023-11-22T02:49:57;23.58;;;10.18;;
17631;SDS011;8934;51.194;17.150;2023-11-22T02:52:45;23.55;;;10.55;;
17631;SDS011;8934;51.194;17.150;2023-11-22T02:55:33;20.98;;;10.07;;
17631;SDS011;8934;51.194;17.150;2023-11-22T02:58:22;23.08;;;9.25;;
17631;SDS011;8934;51.194;17.150;2023-11-22T03:01:10;22.63;;;10.13;;
17631;SDS011;8934;51.194;17.150;2023-11-22T03:03:57;20.95;;;10.48;;
17631;SDS011;8934;51.194;17.150;2023-11-22T03:06:46;25.73;;;13.43;;
17631;SDS011;8934;51.194;17.150;2023-11-22T03:09:34;21.95;;;10.20;;
17631;SDS011;8934;51.194;17.150;2023-11-22T03:12:22;21.13;;;10.93;;
17631;SDS011;8934;51.194;17.150;2023-11-22T03:15:11;29.65;;;12.85;;
17631;SDS011;8934;51.194;17.150;2023-11-22T03:17:59;21.00;;;11.90;;
17631;SDS011;8934;51.194;17.150;2023-11-22T03:20:47;26.33;;;10.07;;
17631;SDS011;8934;51.194;17.150;2023-11-22T03:23:40;18.05;;;10.35;;
17631;SDS011;8934;51.194;17.150;2023-11-22T03:26:28;21.95;;;9.93;;
17631;SDS011;8934;51.194;17.150;2023-11-22T03:29:15;19.70;;;9.85;;
17631;SDS011;8934;51.194;17.150;2023-11-22T03:32:06;19.40;;;8.27;;
17631;SDS011;8934;51.194;17.150;2023-11-22T03:34:54;18.00;;;8.10;;
17631;SDS011;8934;51.194;17.150;2023-11-22T03:37:43;18.70;;;7.75;;
17631;SDS011;8934;51.194;17.150;2023-11-22T03:40:30;19.13;;;8.48;;
17631;SDS011;8934;51.194;17.150;2023-11-22T03:43:18;21.90;;;9.68;;
17631;SDS011;8934;51.194;17.150;2023-11-22T03:46:06;19.98;;;8.20;;
17631;SDS011;8934;51.194;17.150;2023-11-22T03:48:55;12.25;;;6.80;;
17631;SDS011;8934;51.194;17.150;2023-11-22T03:51:43;14.40;;;7.38;;
17631;SDS011;8934;51.194;17.150;2023-11-22T03:54:31;16.90;;;8.10;;
17631;SDS011;8934;51.194;17.150;2023-11-22T03:57:19;20.50;;;8.07;;
17631;SDS011;8934;51.194;17.150;2023-11-22T04:00:07;15.55;;;7.38;;
17631;SDS011;8934;51.194;17.150;2023-11-22T04:02:59;16.15;;;5.70;;
17631;SDS011;8934;51.194;17.150;2023-11-22T04:05:49;16.60;;;7.03;;
17631;SDS011;8934;51.194;17.150;2023-11-22T04:08:37;8.55;;;4.75;;
17631;SDS011;8934;51.194;17.150;2023-11-22T04:11:24;9.00;;;5.38;;
17631;SDS011;8934;51.194;17.150;2023-11-22T04:14:14;8.00;;;3.60;;
17631;SDS011;8934;51.194;17.150;2023-11-22T04:17:02;11.35;;;6.13;;
17631;SDS011;8934;51.194;17.150;2023-11-22T04:19:50;13.05;;;6.53;;
17631;SDS011;8934;51.194;17.150;2023-11-22T04:22:39;15.65;;;6.30;;
17631;SDS011;8934;51.194;17.150;2023-11-22T04:25:27;14.05;;;5.55;;
17631;SDS011;8934;51.194;17.150;2023-11-22T04:28:15;12.30;;;5.53;;
17631;SDS011;8934;51.194;17.150;2023-11-22T04:31:04;13.07;;;6.07;;
17631;SDS011;8934;51.194;17.150;2023-11-22T04:33:55;12.75;;;6.60;;
17631;SDS011;8934;51.194;17.150;2023-11-22T04:36:43;13.45;;;5.75;;
17631;SDS011;8934;51.194;17.150;2023-11-22T04:39:33;10.00;;;5.47;;
17631;SDS011;8934;51.194;17.150;2023-11-22T04:42:21;10.00;;;6.13;;
17631;SDS011;8934;51.194;17.150;2023-11-22T04:45:09;15.65;;;5.50;;
17631;SDS011;8934;51.194;17.150;2023-11-22T04:47:57;13.15;;;7.07;;
17631;SDS011;8934;51.194;17.150;2023-11-22T04:50:45;10.35;;;5.45;;
17631;SDS011;8934;51.194;17.150;2023-11-22T04:53:32;12.13;;;5.50;;
17631;SDS011;8934;51.194;17.150;2023-11-22T04:56:21;14.15;;;6.32;;
17631;SDS011;8934;51.194;17.150;2023-11-22T04:59:09;15.40;;;5.80;;
17631;SDS011;8934;51.194;17.150;2023-11-22T05:01:57;9.90;;;5.38;;
17631;SDS011;8934;51.194;17.150;2023-11-22T05:04:45;11.52;;;6.55;;
17631;SDS011;8934;51.194;17.150;2023-11-22T05:07:34;15.60;;;5.70;;
17631;SDS011;8934;51.194;17.150;2023-11-22T05:10:22;16.70;;;7.07;;
17631;SDS011;8934;51.194;17.150;2023-11-22T05:13:11;12.32;;;6.85;;
17631;SDS011;8934;51.194;17.150;2023-11-22T05:15:59;20.80;;;7.25;;
17631;SDS011;8934;51.194;17.150;2023-11-22T05:18:46;15.35;;;6.82;;
17631;SDS011;8934;51.194;17.150;2023-11-22T05:21:34;14.15;;;8.07;;
17631;SDS011;8934;51.194;17.150;2023-11-22T05:24:22;13.00;;;6.10;;
17631;SDS011;8934;51.194;17.150;2023-11-22T05:27:09;11.05;;;5.80;;
17631;SDS011;8934;51.194;17.150;2023-11-22T05:29:59;9.05;;;4.55;;
17631;SDS011;8934;51.194;17.150;2023-11-22T05:32:47;11.07;;;6.45;;
17631;SDS011;8934;51.194;17.150;2023-11-22T05:35:35;8.75;;;4.90;;
17631;SDS011;8934;51.194;17.150;2023-11-22T05:38:22;11.02;;;6.57;;
17631;SDS011;8934;51.194;17.150;2023-11-22T05:41:11;10.52;;;5.95;;
17631;SDS011;8934;51.194;17.150;2023-11-22T05:43:59;15.13;;;6.53;;
17631;SDS011;8934;51.194;17.150;2023-11-22T05:46:50;12.60;;;5.88;;
17631;SDS011;8934;51.194;17.150;2023-11-22T05:49:37;13.50;;;6.97;;
17631;SDS011;8934;51.194;17.150;2023-11-22T05:52:25;11.23;;;5.68;;
17631;SDS011;8934;51.194;17.150;2023-11-22T05:55:13;16.88;;;5.78;;
17631;SDS011;8934;51.194;17.150;2023-11-22T05:58:01;11.23;;;5.50;;
17631;SDS011;8934;51.194;17.150;2023-11-22T06:00:48;13.65;;;4.95;;
17631;SDS011;8934;51.194;17.150;2023-11-22T06:03:37;10.27;;;4.75;;
17631;SDS011;8934;51.194;17.150;2023-11-22T06:06:25;10.23;;;4.97;;
17631;SDS011;8934;51.194;17.150;2023-11-22T06:09:13;12.40;;;6.32;;
17631;SDS011;8934;51.194;17.150;2023-11-22T06:12:01;6.38;;;4.00;;
17631;SDS011;8934;51.194;17.150;2023-11-22T06:14:48;7.50;;;4.75;;
17631;SDS011;8934;51.194;17.150;2023-11-22T06:17:36;11.75;;;4.38;;
17631;SDS011;8934;51.194;17.150;2023-11-22T06:20:25;12.68;;;5.47;;
17631;SDS011;8934;51.194;17.150;2023-11-22T06:23:13;13.25;;;5.43;;
17631;SDS011;8934;51.194;17.150;2023-11-22T06:26:01;6.50;;;3.67;;
17631;SDS011;8934;51.194;17.150;2023-11-22T06:28:48;16.00;;;4.60;;
17631;SDS011;8934;51.194;17.150;2023-11-22T06:31:36;8.13;;;3.33;;
17631;SDS011;8934;51.194;17.150;2023-11-22T06:34:24;12.27;;;4.80;;
17631;SDS011;8934;51.194;17.150;2023-11-22T06:37:13;5.53;;;3.13;;
17631;SDS011;8934;51.194;17.150;2023-11-22T06:40:00;9.88;;;5.05;;
17631;SDS011;8934;51.194;17.150;2023-11-22T06:42:49;12.02;;;5.28;;
17631;SDS011;8934;51.194;17.150;2023-11-22T06:45:37;10.43;;;4.88;;
17631;SDS011;8934;51.194;17.150;2023-11-22T06:48:24;7.90;;;3.35;;
17631;SDS011;8934;51.194;17.150;2023-11-22T06:51:12;15.98;;;5.50;;
17631;SDS011;8934;51.194;17.150;2023-11-22T06:54:02;5.88;;;4.72;;
17631;SDS011;8934;51.194;17.150;2023-11-22T06:56:50;8.80;;;4.05;;
17631;SDS011;8934;51.194;17.150;2023-11-22T06:59:38;9.52;;;4.78;;
17631;SDS011;8934;51.194;17.150;2023-11-22T07:02:26;11.98;;;6.10;;
17631;SDS011;8934;51.194;17.150;2023-11-22T07:05:14;7.28;;;4.45;;
17631;SDS011;8934;51.194;17.150;2023-11-22T07:08:02;8.55;;;3.53;;
17631;SDS011;8934;51.194;17.150;2023-11-22T07:10:51;10.77;;;4.38;;
17631;SDS011;8934;51.194;17.150;2023-11-22T07:13:39;8.88;;;4.28;;
17631;SDS011;8934;51.194;17.150;2023-11-22T07:16:27;8.32;;;4.22;;
17631;SDS011;8934;51.194;17.150;2023-11-22T07:19:14;11.30;;;4.30;;
17631;SDS011;8934;51.194;17.150;2023-11-22T07:22:02;12.07;;;4.00;;
17631;SDS011;8934;51.194;17.150;2023-11-22T07:24:50;9.27;;;4.78;;
17631;SDS011;8934;51.194;17.150;2023-11-22T07:27:41;8.35;;;4.13;;
17631;SDS011;8934;51.194;17.150;2023-11-22T07:30:29;9.13;;;4.88;;
17631;SDS011;8934;51.194;17.150;2023-11-22T07:33:19;14.50;;;4.85;;
17631;SDS011;8934;51.194;17.150;2023-11-22T07:36:07;12.00;;;4.85;;
17631;SDS011;8934;51.194;17.150;2023-11-22T07:38:55;18.42;;;7.40;;
17631;SDS011;8934;51.194;17.150;2023-11-22T07:41:43;9.77;;;4.70;;
17631;SDS011;8934;51.194;17.150;2023-11-22T07:44:32;15.30;;;6.22;;
17631;SDS011;8934;51.194;17.150;2023-11-22T07:47:22;9.13;;;4.00;;
17631;SDS011;8934;51.194;17.150;2023-11-22T07:50:10;11.73;;;4.32;;
17631;SDS011;8934;51.194;17.150;2023-11-22T07:52:58;7.13;;;3.67;;
17631;SDS011;8934;51.194;17.150;2023-11-22T07:55:48;3.95;;;2.95;;
17631;SDS011;8934;51.194;17.150;2023-11-22T07:58:38;6.32;;;3.20;;
17631;SDS011;8934;51.194;17.150;2023-11-22T08:01:27;6.55;;;3.05;;
17631;SDS011;8934;51.194;17.150;2023-11-22T08:04:17;7.75;;;5.43;;
17631;SDS011;8934;51.194;17.150;2023-11-22T08:07:04;13.43;;;6.00;;
17631;SDS011;8934;51.194;17.150;2023-11-22T08:09:52;17.15;;;6.82;;
17631;SDS011;8934;51.194;17.150;2023-11-22T08:12:39;12.38;;;6.10;;
17631;SDS011;8934;51.194;17.150;2023-11-22T08:15:27;11.98;;;6.10;;
17631;SDS011;8934;51.194;17.150;2023-11-22T08:18:16;11.02;;;5.80;;
17631;SDS011;8934;51.194;17.150;2023-11-22T08:21:03;10.48;;;6.32;;
17631;SDS011;8934;51.194;17.150;2023-11-22T08:23:51;14.23;;;6.35;;
17631;SDS011;8934;51.194;17.150;2023-11-22T08:26:40;10.10;;;6.13;;
17631;SDS011;8934;51.194;17.150;2023-11-22T08:29:27;11.60;;;6.13;;
17631;SDS011;8934;51.194;17.150;2023-11-22T08:32:14;12.23;;;5.72;;
17631;SDS011;8934;51.194;17.150;2023-11-22T08:35:04;10.40;;;5.07;;
17631;SDS011;8934;51.194;17.150;2023-11-22T08:37:53;10.07;;;4.78;;
17631;SDS011;8934;51.194;17.150;2023-11-22T08:40:43;9.57;;;5.75;;
17631;SDS011;8934;51.194;17.150;2023-11-22T08:43:30;11.45;;;5.38;;
17631;SDS011;8934;51.194;17.150;2023-11-22T08:46:18;10.35;;;5.65;;
17631;SDS011;8934;51.194;17.150;2023-11-22T08:49:05;15.05;;;6.35;;
17631;SDS011;8934;51.194;17.150;2023-11-22T08:51:54;15.02;;;6.63;;
17631;SDS011;8934;51.194;17.150;2023-11-22T08:54:41;10.48;;;5.32;;
17631;SDS011;8934;51.194;17.150;2023-11-22T08:57:28;18.70;;;8.05;;
17631;SDS011;8934;51.194;17.150;2023-11-22T09:00:16;12.25;;;7.00;;
17631;SDS011;8934;51.194;17.150;2023-11-22T09:03:07;13.50;;;6.20;;
17631;SDS011;8934;51.194;17.150;2023-11-22T09:05:56;14.43;;;7.85;;
17631;SDS011;8934;51.194;17.150;2023-11-22T09:08:45;17.35;;;7.32;;
17631;SDS011;8934;51.194;17.150;2023-11-22T09:11:34;15.15;;;5.60;;
17631;SDS011;8934;51.194;17.150;2023-11-22T09:14:22;11.77;;;7.28;;
17631;SDS011;8934;51.194;17.150;2023-11-22T09:17:10;13.93;;;7.38;;
17631;SDS011;8934;51.194;17.150;2023-11-22T09:19:57;10.63;;;7.28;;
17631;SDS011;8934;51.194;17.150;2023-11-22T09:22:45;10.00;;;5.97;;
17631;SDS011;8934;51.194;17.150;2023-11-22T09:25:36;12.80;;;5.85;;
17631;SDS011;8934;51.194;17.150;2023-11-22T09:28:25;12.07;;;5.45;;
17631;SDS011;8934;51.194;17.150;2023-11-22T09:31:13;8.23;;;4.68;;
17631;SDS011;8934;51.194;17.150;2023-11-22T09:34:05;11.30;;;6.15;;
17631;SDS011;8934;51.194;17.150;2023-11-22T09:36:53;11.75;;;6.45;;
17631;SDS011;8934;51.194;17.150;2023-11-22T09:39:40;12.30;;;5.85;;
17631;SDS011;8934;51.194;17.150;2023-11-22T09:42:29;9.52;;;5.45;;
17631;SDS011;8934;51.194;17.150;2023-11-22T09:45:17;10.85;;;6.18;;
17631;SDS011;8934;51.194;17.150;2023-11-22T09:48:06;10.48;;;5.38;;
17631;SDS011;8934;51.194;17.150;2023-11-22T09:51:02;14.55;;;6.43;;
17631;SDS011;8934;51.194;17.150;2023-11-22T09:53:55;12.18;;;6.28;;
17631;SDS011;8934;51.194;17.150;2023-11-22T09:56:44;10.30;;;5.93;;
17631;SDS011;8934;51.194;17.150;2023-11-22T09:59:37;13.63;;;6.85;;
17631;SDS011;8934;51.194;17.150;2023-11-22T10:02:26;10.55;;;6.57;;
17631;SDS011;8934;51.194;17.150;2023-11-22T10:05:14;11.88;;;5.75;;
17631;SDS011;8934;51.194;17.150;2023-11-22T10:08:02;15.25;;;6.72;;
17631;SDS011;8934;51.194;17.150;2023-11-22T10:10:50;10.38;;;5.43;;
17631;SDS011;8934;51.194;17.150;2023-11-22T10:13:39;17.40;;;5.22;;
17631;SDS011;8934;51.194;17.150;2023-11-22T10:16:28;13.15;;;6.72;;
17631;SDS011;8934;51.194;17.150;2023-11-22T10:19:15;8.52;;;5.00;;
17631;SDS011;8934;51.194;17.150;2023-11-22T10:22:05;10.35;;;5.47;;
17631;SDS011;8934;51.194;17.150;2023-11-22T10:24:53;12.07;;;6.50;;
17631;SDS011;8934;51.194;17.150;2023-11-22T10:27:46;13.15;;;5.97;;
17631;SDS011;8934;51.194;17.150;2023-11-22T10:30:37;10.23;;;5.03;;
17631;SDS011;8934;51.194;17.150;2023-11-22T10:33:27;8.80;;;5.50;;
17631;SDS011;8934;51.194;17.150;2023-11-22T10:36:17;9.57;;;5.40;;
17631;SDS011;8934;51.194;17.150;2023-11-22T10:39:07;13.10;;;5.53;;
17631;SDS011;8934;51.194;17.150;2023-11-22T10:42:01;14.15;;;6.18;;
17631;SDS011;8934;51.194;17.150;2023-11-22T10:44:50;12.18;;;5.43;;
17631;SDS011;8934;51.194;17.150;2023-11-22T10:47:40;11.32;;;6.47;;
17631;SDS011;8934;51.194;17.150;2023-11-22T10:50:30;8.77;;;5.93;;
17631;SDS011;8934;51.194;17.150;2023-11-22T10:53:20;13.20;;;6.28;;
17631;SDS011;8934;51.194;17.150;2023-11-22T10:56:11;11.90;;;5.55;;
17631;SDS011;8934;51.194;17.150;2023-11-22T10:59:01;13.35;;;6.32;;
17631;SDS011;8934;51.194;17.150;2023-11-22T11:01:53;8.93;;;5.35;;
17631;SDS011;8934;51.194;17.150;2023-11-22T11:04:46;9.90;;;5.20;;
17631;SDS011;8934;51.194;17.150;2023-11-22T11:07:40;7.72;;;4.82;;
17631;SDS011;8934;51.194;17.150;2023-11-22T11:10:33;9.80;;;5.05;;
17631;SDS011;8934;51.194;17.150;2023-11-22T11:13:22;16.65;;;5.07;;
17631;SDS011;8934;51.194;17.150;2023-11-22T11:16:10;6.03;;;3.80;;
17631;SDS011;8934;51.194;17.150;2023-11-22T11:18:57;9.80;;;5.05;;
17631;SDS011;8934;51.194;17.150;2023-11-22T11:21:45;8.93;;;5.28;;
17631;SDS011;8934;51.194;17.150;2023-11-22T11:24:39;10.23;;;4.72;;
17631;SDS011;8934;51.194;17.150;2023-11-22T11:27:32;15.10;;;6.75;;
17631;SDS011;8934;51.194;17.150;2023-11-22T11:30:40;6.18;;;4.03;;
17631;SDS011;8934;51.194;17.150;2023-11-22T11:33:32;11.10;;;5.03;;
17631;SDS011;8934;51.194;17.150;2023-11-22T11:36:20;9.00;;;5.13;;
17631;SDS011;8934;51.194;17.150;2023-11-22T11:39:12;11.40;;;4.88;;
17631;SDS011;8934;51.194;17.150;2023-11-22T11:42:08;10.25;;;4.95;;
17631;SDS011;8934;51.194;17.150;2023-11-22T11:45:03;9.20;;;3.90;;
17631;SDS011;8934;51.194;17.150;2023-11-22T11:47:52;9.30;;;5.95;;
17631;SDS011;8934;51.194;17.150;2023-11-22T11:50:40;6.82;;;4.60;;
17631;SDS011;8934;51.194;17.150;2023-11-22T11:53:27;9.27;;;4.60;;
17631;SDS011;8934;51.194;17.150;2023-11-22T11:56:17;13.50;;;4.10;;
17631;SDS011;8934;51.194;17.150;2023-11-22T11:59:06;5.30;;;3.78;;
17631;SDS011;8934;51.194;17.150;2023-11-22T12:01:55;9.23;;;4.65;;
17631;SDS011;8934;51.194;17.150;2023-11-22T12:04:43;11.57;;;5.57;;
17631;SDS011;8934;51.194;17.150;2023-11-22T12:07:31;10.60;;;5.05;;
17631;SDS011;8934;51.194;17.150;2023-11-22T12:10:18;8.70;;;5.85;;
17631;SDS011;8934;51.194;17.150;2023-11-22T12:13:07;11.13;;;4.43;;
17631;SDS011;8934;51.194;17.150;2023-11-22T12:15:56;8.95;;;4.53;;
17631;SDS011;8934;51.194;17.150;2023-11-22T12:18:44;12.52;;;4.57;;
17631;SDS011;8934;51.194;17.150;2023-11-22T12:21:33;11.43;;;5.70;;
17631;SDS011;8934;51.194;17.150;2023-11-22T12:24:20;8.80;;;5.93;;
17631;SDS011;8934;51.194;17.150;2023-11-22T12:27:09;9.90;;;4.78;;
17631;SDS011;8934;51.194;17.150;2023-11-22T12:29:56;7.15;;;4.00;;
17631;SDS011;8934;51.194;17.150;2023-11-22T12:32:45;7.95;;;2.35;;
17631;SDS011;8934;51.194;17.150;2023-11-22T12:35:34;7.72;;;4.63;;
17631;SDS011;8934;51.194;17.150;2023-11-22T12:38:23;8.50;;;4.38;;
17631;SDS011;8934;51.194;17.150;2023-11-22T12:41:11;7.22;;;4.57;;
17631;SDS011;8934;51.194;17.150;2023-11-22T12:44:02;8.80;;;4.20;;
17631;SDS011;8934;51.194;17.150;2023-11-22T12:46:50;12.07;;;4.28;;
17631;SDS011;8934;51.194;17.150;2023-11-22T12:49:45;9.30;;;4.70;;
17631;SDS011;8934;51.194;17.150;2023-11-22T12:52:33;12.10;;;4.63;;
17631;SDS011;8934;51.194;17.150;2023-11-22T12:55:20;6.78;;;4.10;;
17631;SDS011;8934;51.194;17.150;2023-11-22T12:58:07;8.07;;;4.10;;
17631;SDS011;8934;51.194;17.150;2023-11-22T13:00:55;11.57;;;4.10;;
17631;SDS011;8934;51.194;17.150;2023-11-22T13:03:46;7.13;;;4.60;;
17631;SDS011;8934;51.194;17.150;2023-11-22T13:06:37;7.97;;;4.20;;
17631;SDS011;8934;51.194;17.150;2023-11-22T13:09:24;6.25;;;3.45;;
17631;SDS011;8934;51.194;17.150;2023-11-22T13:12:12;6.20;;;3.47;;
17631;SDS011;8934;51.194;17.150;2023-11-22T13:14:59;9.10;;;4.20;;
17631;SDS011;8934;51.194;17.150;2023-11-22T13:17:46;11.35;;;4.25;;
17631;SDS011;8934;51.194;17.150;2023-11-22T13:20:34;8.98;;;4.43;;
17631;SDS011;8934;51.194;17.150;2023-11-22T13:23:25;6.25;;;4.15;;
17631;SDS011;8934;51.194;17.150;2023-11-22T13:26:12;10.23;;;4.63;;
17631;SDS011;8934;51.194;17.150;2023-11-22T13:29:00;11.82;;;4.50;;
17631;SDS011;8934;51.194;17.150;2023-11-22T13:31:47;8.52;;;3.35;;
17631;SDS011;8934;51.194;17.150;2023-11-22T13:34:34;6.43;;;3.45;;
17631;SDS011;8934;51.194;17.150;2023-11-22T13:37:22;6.20;;;4.10;;
17631;SDS011;8934;51.194;17.150;2023-11-22T13:40:11;6.35;;;4.55;;
17631;SDS011;8934;51.194;17.150;2023-11-22T13:43:01;6.93;;;4.03;;
17631;SDS011;8934;51.194;17.150;2023-11-22T13:45:49;9.95;;;3.90;;
17631;SDS011;8934;51.194;17.150;2023-11-22T13:48:36;9.18;;;4.22;;
17631;SDS011;8934;51.194;17.150;2023-11-22T13:51:23;7.80;;;3.25;;
17631;SDS011;8934;51.194;17.150;2023-11-22T13:54:11;6.82;;;4.15;;
17631;SDS011;8934;51.194;17.150;2023-11-22T13:57:01;6.10;;;4.13;;
17631;SDS011;8934;51.194;17.150;2023-11-22T13:59:49;6.15;;;3.08;;
17631;SDS011;8934;51.194;17.150;2023-11-22T14:02:37;8.57;;;4.15;;
17631;SDS011;8934;51.194;17.150;2023-11-22T14:05:24;8.48;;;4.50;;
17631;SDS011;8934;51.194;17.150;2023-11-22T14:08:13;10.90;;;5.22;;
17631;SDS011;8934;51.194;17.150;2023-11-22T14:11:02;7.70;;;5.00;;
17631;SDS011;8934;51.194;17.150;2023-11-22T14:13:52;8.80;;;5.70;;
17631;SDS011;8934;51.194;17.150;2023-11-22T14:16:39;9.52;;;5.70;;
17631;SDS011;8934;51.194;17.150;2023-11-22T14:19:30;11.27;;;5.88;;
17631;SDS011;8934;51.194;17.150;2023-11-22T14:22:17;21.45;;;8.40;;
17631;SDS011;8934;51.194;17.150;2023-11-22T14:25:06;20.80;;;8.18;;
17631;SDS011;8934;51.194;17.150;2023-11-22T14:27:57;22.95;;;10.10;;
17631;SDS011;8934;51.194;17.150;2023-11-22T14:30:46;18.55;;;8.90;;
17631;SDS011;8934;51.194;17.150;2023-11-22T14:33:39;9.90;;;5.57;;
17631;SDS011;8934;51.194;17.150;2023-11-22T14:36:27;9.25;;;6.10;;
17631;SDS011;8934;51.194;17.150;2023-11-22T14:39:15;10.90;;;4.57;;
17631;SDS011;8934;51.194;17.150;2023-11-22T14:42:02;7.07;;;4.05;;
17631;SDS011;8934;51.194;17.150;2023-11-22T14:44:51;8.80;;;4.05;;
17631;SDS011;8934;51.194;17.150;2023-11-22T14:47:40;9.32;;;4.88;;
17631;SDS011;8934;51.194;17.150;2023-11-22T14:50:30;9.68;;;4.15;;
17631;SDS011;8934;51.194;17.150;2023-11-22T14:53:18;7.20;;;3.45;;
17631;SDS011;8934;51.194;17.150;2023-11-22T14:56:06;5.25;;;3.95;;
17631;SDS011;8934;51.194;17.150;2023-11-22T14:58:56;12.02;;;5.90;;
17631;SDS011;8934;51.194;17.150;2023-11-22T15:01:47;7.63;;;3.15;;
17631;SDS011;8934;51.194;17.150;2023-11-22T15:04:35;6.30;;;3.85;;
17631;SDS011;8934;51.194;17.150;2023-11-22T15:07:23;7.45;;;3.83;;
17631;SDS011;8934;51.194;17.150;2023-11-22T15:10:10;5.75;;;2.75;;
17631;SDS011;8934;51.194;17.150;2023-11-22T15:12:59;6.38;;;3.83;;
17631;SDS011;8934;51.194;17.150;2023-11-22T15:15:48;7.85;;;4.18;;
17631;SDS011;8934;51.194;17.150;2023-11-22T15:18:35;6.18;;;2.70;;
17631;SDS011;8934;51.194;17.150;2023-11-22T15:21:24;8.48;;;4.22;;
17631;SDS011;8934;51.194;17.150;2023-11-22T15:24:12;8.80;;;4.25;;
17631;SDS011;8934;51.194;17.150;2023-11-22T15:26:59;13.80;;;6.70;;
17631;SDS011;8934;51.194;17.150;2023-11-22T15:29:46;13.40;;;5.55;;
17631;SDS011;8934;51.194;17.150;2023-11-22T15:32:33;13.45;;;5.80;;
17631;SDS011;8934;51.194;17.150;2023-11-22T15:35:21;16.50;;;8.30;;
17631;SDS011;8934;51.194;17.150;2023-11-22T15:38:10;14.77;;;6.13;;
17631;SDS011;8934;51.194;17.150;2023-11-22T15:40:57;14.00;;;7.05;;
17631;SDS011;8934;51.194;17.150;2023-11-22T15:44:00;14.23;;;6.70;;
17631;SDS011;8934;51.194;17.150;2023-11-22T15:46:47;11.82;;;5.57;;
17631;SDS011;8934;51.194;17.150;2023-11-22T15:49:35;13.77;;;6.47;;
17631;SDS011;8934;51.194;17.150;2023-11-22T15:52:22;14.82;;;6.70;;
17631;SDS011;8934;51.194;17.150;2023-11-22T15:55:13;8.68;;;5.05;;
17631;SDS011;8934;51.194;17.150;2023-11-22T15:58:01;6.45;;;4.90;;
17631;SDS011;8934;51.194;17.150;2023-11-22T16:00:48;9.00;;;5.45;;
17631;SDS011;8934;51.194;17.150;2023-11-22T16:03:36;10.85;;;5.00;;
17631;SDS011;8934;51.194;17.150;2023-11-22T16:06:25;10.27;;;5.20;;
17631;SDS011;8934;51.194;17.150;2023-11-22T16:09:14;9.88;;;5.72;;
17631;SDS011;8934;51.194;17.150;2023-11-22T16:12:03;8.50;;;5.93;;
17631;SDS011;8934;51.194;17.150;2023-11-22T16:14:51;13.05;;;7.25;;
17631;SDS011;8934;51.194;17.150;2023-11-22T16:17:39;14.35;;;6.60;;
17631;SDS011;8934;51.194;17.150;2023-11-22T16:20:27;12.52;;;6.78;;
17631;SDS011;8934;51.194;17.150;2023-11-22T16:23:17;11.18;;;6.28;;
17631;SDS011;8934;51.194;17.150;2023-11-22T16:26:04;13.45;;;5.70;;
17631;SDS011;8934;51.194;17.150;2023-11-22T16:28:53;10.82;;;6.15;;
17631;SDS011;8934;51.194;17.150;2023-11-22T16:31:40;16.75;;;6.15;;
17631;SDS011;8934;51.194;17.150;2023-11-22T16:34:28;8.95;;;5.10;;
17631;SDS011;8934;51.194;17.150;2023-11-22T16:37:15;11.57;;;6.20;;
17631;SDS011;8934;51.194;17.150;2023-11-22T16:40:04;14.63;;;6.82;;
17631;SDS011;8934;51.194;17.150;2023-11-22T16:42:54;5.97;;;4.13;;